Lake Joy, Washington
Current Conditions -  °F | °C
As of 11:53 PM on Tuesday 25 Nov 2014 (Local Time) from KRNT Reporting Station
Haze Haze  
Wind Chill: 57°   Ceiling: 1400
Heat Index: 57°   Visibility: 6mi
Dew Point: 54°   Wind: 12mph
Humidity: 89%   Direction: 160°SSE
Pressure: 30.18"   Gusts: 18mph
Location:  47.651°N, 121.896°W
Report Text: KRNT 260753Z AUTO 16010G16KT 6SM BR BKN014 OVC028 14/12 A3018 RMK AO2 RAB11E20 SLP225 P0000 T01390122 401440094
Loading
Personal Weather Stations






























Interactive Weather Map New forecast layout! Learn more

10-Day Weather Forecast

Advertisements
Track Severe Weather on mobile